sensor_id;sensor_type;location;lat;lon;timestamp;pressure;altitude;pressure_sealevel;temperature
77728;BMP280;68312;53.502;10.030;2023-11-19T00:02:04;100617.84;;;5.54
77728;BMP280;68312;53.502;10.030;2023-11-19T00:04:30;100616.59;;;5.51
77728;BMP280;68312;53.502;10.030;2023-11-19T00:06:55;100612.38;;;5.55
77728;BMP280;68312;53.502;10.030;2023-11-19T00:09:27;100608.97;;;5.55
77728;BMP280;68312;53.502;10.030;2023-11-19T00:11:52;100605.59;;;5.54
77728;BMP280;68312;53.502;10.030;2023-11-19T00:14:17;100594.69;;;5.52
77728;BMP280;68312;53.502;10.030;2023-11-19T00:16:43;100572.03;;;5.53
77728;BMP280;68312;53.502;10.030;2023-11-19T00:19:08;100564.44;;;5.56
77728;BMP280;68312;53.502;10.030;2023-11-19T00:21:33;100556.63;;;5.56
77728;BMP280;68312;53.502;10.030;2023-11-19T00:23:59;100557.97;;;5.54
77728;BMP280;68312;53.502;10.030;2023-11-19T00:26:24;100550.91;;;5.54
77728;BMP280;68312;53.502;10.030;2023-11-19T00:28:50;100549.59;;;5.57
77728;BMP280;68312;53.502;10.030;2023-11-19T00:31:15;100535.78;;;5.56
77728;BMP280;68312;53.502;10.030;2023-11-19T00:33:40;100527.47;;;5.54
77728;BMP280;68312;53.502;10.030;2023-11-19T00:36:06;100514.97;;;5.56
77728;BMP280;68312;53.502;10.030;2023-11-19T00:38:32;100499.34;;;5.56
77728;BMP280;68312;53.502;10.030;2023-11-19T00:40:57;100501.63;;;5.57
77728;BMP280;68312;53.502;10.030;2023-11-19T00:43:23;100486.19;;;5.61
77728;BMP280;68312;53.502;10.030;2023-11-19T00:45:48;100488.31;;;5.59
77728;BMP280;68312;53.502;10.030;2023-11-19T00:48:16;100474.53;;;5.58
77728;BMP280;68312;53.502;10.030;2023-11-19T00:50:42;100480.22;;;5.60
77728;BMP280;68312;53.502;10.030;2023-11-19T00:53:12;100484.59;;;5.65
77728;BMP280;68312;53.502;10.030;2023-11-19T00:55:37;100485.34;;;5.65
77728;BMP280;68312;53.502;10.030;2023-11-19T00:58:02;100485.34;;;5.65
77728;BMP280;68312;53.502;10.030;2023-11-19T01:00:28;100463.75;;;5.65
77728;BMP280;68312;53.502;10.030;2023-11-19T01:02:54;100441.88;;;5.66
77728;BMP280;68312;53.502;10.030;2023-11-19T01:05:56;100432.00;;;5.63
77728;BMP280;68312;53.502;10.030;2023-11-19T01:08:23;100417.16;;;5.63
77728;BMP280;68312;53.502;10.030;2023-11-19T01:10:49;100407.72;;;5.67
77728;BMP280;68312;53.502;10.030;2023-11-19T01:13:15;100395.53;;;5.63
77728;BMP280;68312;53.502;10.030;2023-11-19T01:15:40;100390.13;;;5.59
77728;BMP280;68312;53.502;10.030;2023-11-19T01:18:06;100380.50;;;5.60
77728;BMP280;68312;53.502;10.030;2023-11-19T01:20:34;100369.50;;;5.63
77728;BMP280;68312;53.502;10.030;2023-11-19T01:23:00;100362.16;;;5.65
77728;BMP280;68312;53.502;10.030;2023-11-19T01:25:25;100350.78;;;5.61
77728;BMP280;68312;53.502;10.030;2023-11-19T01:27:50;100340.56;;;5.64
77728;BMP280;68312;53.502;10.030;2023-11-19T01:30:16;100330.06;;;5.69
77728;BMP280;68312;53.502;10.030;2023-11-19T01:32:41;100330.38;;;5.68
77728;BMP280;68312;53.502;10.030;2023-11-19T01:35:07;100327.91;;;5.71
77728;BMP280;68312;53.502;10.030;2023-11-19T01:37:35;100323.81;;;5.70
77728;BMP280;68312;53.502;10.030;2023-11-19T01:40:01;100311.25;;;5.72
77728;BMP280;68312;53.502;10.030;2023-11-19T01:42:36;100291.66;;;5.75
77728;BMP280;68312;53.502;10.030;2023-11-19T01:45:03;100290.72;;;5.71
77728;BMP280;68312;53.502;10.030;2023-11-19T01:47:33;100281.50;;;5.73
77728;BMP280;68312;53.502;10.030;2023-11-19T01:49:59;100288.47;;;5.78
77728;BMP280;68312;53.502;10.030;2023-11-19T01:52:25;100279.69;;;5.74
77728;BMP280;68312;53.502;10.030;2023-11-19T01:54:52;100276.31;;;5.73
77728;BMP280;68312;53.502;10.030;2023-11-19T01:57:21;100266.38;;;5.75
77728;BMP280;68312;53.502;10.030;2023-11-19T01:59:52;100264.75;;;5.79
77728;BMP280;68312;53.502;10.030;2023-11-19T02:02:19;100245.44;;;5.80
77728;BMP280;68312;53.502;10.030;2023-11-19T02:04:46;100243.31;;;5.82
77728;BMP280;68312;53.502;10.030;2023-11-19T02:07:13;100241.03;;;5.81
77728;BMP280;68312;53.502;10.030;2023-11-19T02:09:42;100227.19;;;5.80
77728;BMP280;68312;53.502;10.030;2023-11-19T02:12:08;100225.88;;;5.83
77728;BMP280;68312;53.502;10.030;2023-11-19T02:14:34;100213.91;;;5.82
77728;BMP280;68312;53.502;10.030;2023-11-19T02:17:00;100200.72;;;5.87
77728;BMP280;68312;53.502;10.030;2023-11-19T02:19:25;100213.34;;;5.85
77728;BMP280;68312;53.502;10.030;2023-11-19T02:21:50;100206.28;;;5.85
77728;BMP280;68312;53.502;10.030;2023-11-19T02:24:17;100189.09;;;5.84
77728;BMP280;68312;53.502;10.030;2023-11-19T02:26:56;100189.53;;;5.86
77728;BMP280;68312;53.502;10.030;2023-11-19T02:29:27;100180.38;;;5.88
77728;BMP280;68312;53.502;10.030;2023-11-19T02:31:53;100177.50;;;5.90
77728;BMP280;68312;53.502;10.030;2023-11-19T02:34:20;100162.63;;;5.90
77728;BMP280;68312;53.502;10.030;2023-11-19T02:36:47;100167.84;;;5.90
77728;BMP280;68312;53.502;10.030;2023-11-19T02:39:12;100163.41;;;5.91
77728;BMP280;68312;53.502;10.030;2023-11-19T02:41:38;100144.59;;;5.94
77728;BMP280;68312;53.502;10.030;2023-11-19T02:44:05;100144.88;;;5.92
77728;BMP280;68312;53.502;10.030;2023-11-19T02:46:31;100139.84;;;5.96
77728;BMP280;68312;53.502;10.030;2023-11-19T02:48:57;100121.63;;;5.96
77728;BMP280;68312;53.502;10.030;2023-11-19T02:51:23;100100.94;;;5.99
77728;BMP280;68312;53.502;10.030;2023-11-19T02:53:48;100106.91;;;6.00
77728;BMP280;68312;53.502;10.030;2023-11-19T02:56:14;100094.38;;;6.02
77728;BMP280;68312;53.502;10.030;2023-11-19T02:58:50;100089.63;;;6.04
77728;BMP280;68312;53.502;10.030;2023-11-19T03:01:21;100072.16;;;6.04
77728;BMP280;68312;53.502;10.030;2023-11-19T03:03:54;100068.78;;;6.04
77728;BMP280;68312;53.502;10.030;2023-11-19T03:06:20;100079.38;;;6.07
77728;BMP280;68312;53.502;10.030;2023-11-19T03:08:48;100073.13;;;6.08
77728;BMP280;68312;53.502;10.030;2023-11-19T03:11:14;100063.16;;;6.10
77728;BMP280;68312;53.502;10.030;2023-11-19T03:13:58;100060.28;;;6.20
77728;BMP280;68312;53.502;10.030;2023-11-19T03:16:23;100054.59;;;6.18
77728;BMP280;68312;53.502;10.030;2023-11-19T03:18:49;100020.72;;;6.18
77728;BMP280;68312;53.502;10.030;2023-11-19T03:21:14;100026.72;;;6.19
77728;BMP280;68312;53.502;10.030;2023-11-19T03:23:39;100021.66;;;6.22
77728;BMP280;68312;53.502;10.030;2023-11-19T03:26:05;100030.84;;;6.20
77728;BMP280;68312;53.502;10.030;2023-11-19T03:28:31;100027.97;;;6.21
77728;BMP280;68312;53.502;10.030;2023-11-19T03:30:56;100017.25;;;6.22
77728;BMP280;68312;53.502;10.030;2023-11-19T03:33:22;100003.41;;;6.22
77728;BMP280;68312;53.502;10.030;2023-11-19T03:35:47;100006.03;;;6.22
77728;BMP280;68312;53.502;10.030;2023-11-19T03:38:12;99993.78;;;6.22
77728;BMP280;68312;53.502;10.030;2023-11-19T03:40:39;100002.06;;;6.24
77728;BMP280;68312;53.502;10.030;2023-11-19T03:43:05;99992.22;;;6.21
77728;BMP280;68312;53.502;10.030;2023-11-19T03:45:31;99990.38;;;6.22
77728;BMP280;68312;53.502;10.030;2023-11-19T03:47:56;99979.97;;;6.22
77728;BMP280;68312;53.502;10.030;2023-11-19T03:50:22;99993.78;;;6.22
77728;BMP280;68312;53.502;10.030;2023-11-19T03:52:47;99982.00;;;6.25
77728;BMP280;68312;53.502;10.030;2023-11-19T03:58:25;99973.25;;;6.29
77728;BMP280;68312;53.502;10.030;2023-11-19T04:00:51;99971.69;;;6.28
77728;BMP280;68312;53.502;10.030;2023-11-19T04:03:16;99968.31;;;6.28
77728;BMP280;68312;53.502;10.030;2023-11-19T04:05:41;99962.50;;;6.31
77728;BMP280;68312;53.502;10.030;2023-11-19T04:08:07;99971.13;;;6.31
77728;BMP280;68312;53.502;10.030;2023-11-19T04:10:32;99972.34;;;6.34
77728;BMP280;68312;53.502;10.030;2023-11-19T04:12:58;99955.94;;;6.33
77728;BMP280;68312;53.502;10.030;2023-11-19T04:15:23;99959.50;;;6.37
77728;BMP280;68312;53.502;10.030;2023-11-19T04:17:49;99938.75;;;6.41
77728;BMP280;68312;53.502;10.030;2023-11-19T04:20:14;99926.97;;;6.43
77728;BMP280;68312;53.502;10.030;2023-11-19T04:22:40;99930.03;;;6.45
77728;BMP280;68312;53.502;10.030;2023-11-19T04:25:06;99928.19;;;6.46
77728;BMP280;68312;53.502;10.030;2023-11-19T04:27:32;99929.75;;;6.47
77728;BMP280;68312;53.502;10.030;2023-11-19T04:29:57;99918.25;;;6.48
77728;BMP280;68312;53.502;10.030;2023-11-19T04:32:22;99911.69;;;6.50
77728;BMP280;68312;53.502;10.030;2023-11-19T04:34:50;99900.91;;;6.51
77728;BMP280;68312;53.502;10.030;2023-11-19T04:37:16;99912.56;;;6.54
77728;BMP280;68312;53.502;10.030;2023-11-19T04:39:44;99905.22;;;6.56
77728;BMP280;68312;53.502;10.030;2023-11-19T04:42:10;99896.31;;;6.57
77728;BMP280;68312;53.502;10.030;2023-11-19T04:44:35;99900.00;;;6.56
77728;BMP280;68312;53.502;10.030;2023-11-19T04:47:01;99886.03;;;6.60
77728;BMP280;68312;53.502;10.030;2023-11-19T04:49:26;99891.25;;;6.60
77728;BMP280;68312;53.502;10.030;2023-11-19T04:51:52;99887.41;;;6.66
77728;BMP280;68312;53.502;10.030;2023-11-19T04:54:18;99873.00;;;6.69
77728;BMP280;68312;53.502;10.030;2023-11-19T04:56:46;99876.88;;;6.71
77728;BMP280;68312;53.502;10.030;2023-11-19T04:59:12;99873.31;;;6.76
77728;BMP280;68312;53.502;10.030;2023-11-19T05:01:38;99868.56;;;6.78
77728;BMP280;68312;53.502;10.030;2023-11-19T05:04:03;99858.75;;;6.83
77728;BMP280;68312;53.502;10.030;2023-11-19T05:06:29;99860.31;;;6.84
77728;BMP280;68312;53.502;10.030;2023-11-19T05:08:56;99857.50;;;6.89
77728;BMP280;68312;53.502;10.030;2023-11-19T05:11:23;99844.63;;;6.92
77728;BMP280;68312;53.502;10.030;2023-11-19T05:13:48;99841.41;;;6.95
77728;BMP280;68312;53.502;10.030;2023-11-19T05:16:15;99831.88;;;6.99
77728;BMP280;68312;53.502;10.030;2023-11-19T05:18:41;99824.97;;;7.03
77728;BMP280;68312;53.502;10.030;2023-11-19T05:21:06;99821.91;;;7.10
77728;BMP280;68312;53.502;10.030;2023-11-19T05:23:32;99814.63;;;7.15
77728;BMP280;68312;53.502;10.030;2023-11-19T05:26:01;99820.03;;;7.18
77728;BMP280;68312;53.502;10.030;2023-11-19T05:28:27;99813.09;;;7.22
77728;BMP280;68312;53.502;10.030;2023-11-19T05:30:52;99806.19;;;7.26
77728;BMP280;68312;53.502;10.030;2023-11-19T05:33:18;99801.69;;;7.35
77728;BMP280;68312;53.502;10.030;2023-11-19T05:35:43;99790.88;;;7.53
77728;BMP280;68312;53.502;10.030;2023-11-19T05:38:08;99787.66;;;7.85
77728;BMP280;68312;53.502;10.030;2023-11-19T05:40:35;99771.59;;;8.15
77728;BMP280;68312;53.502;10.030;2023-11-19T05:43:01;99759.94;;;8.65
77728;BMP280;68312;53.502;10.030;2023-11-19T05:45:26;99741.94;;;9.19
77728;BMP280;68312;53.502;10.030;2023-11-19T05:47:52;99725.97;;;9.71
77728;BMP280;68312;53.502;10.030;2023-11-19T05:50:18;99711.91;;;10.02
77728;BMP280;68312;53.502;10.030;2023-11-19T05:52:44;99705.59;;;10.18
77728;BMP280;68312;53.502;10.030;2023-11-19T05:55:10;99712.69;;;10.18
77728;BMP280;68312;53.502;10.030;2023-11-19T05:57:36;99707.97;;;10.23
77728;BMP280;68312;53.502;10.030;2023-11-19T06:00:03;99692.41;;;10.30
77728;BMP280;68312;53.502;10.030;2023-11-19T06:02:32;99692.78;;;10.44
77728;BMP280;68312;53.502;10.030;2023-11-19T06:04:58;99692.97;;;10.51
77728;BMP280;68312;53.502;10.030;2023-11-19T06:07:23;99681.94;;;10.61
77728;BMP280;68312;53.502;10.030;2023-11-19T06:13:19;99664.44;;;10.65
77728;BMP280;68312;53.502;10.030;2023-11-19T06:15:46;99676.13;;;10.67
77728;BMP280;68312;53.502;10.030;2023-11-19T06:18:12;99671.63;;;10.68
77728;BMP280;68312;53.502;10.030;2023-11-19T06:20:37;99665.84;;;10.77
77728;BMP280;68312;53.502;10.030;2023-11-19T06:23:03;99665.09;;;10.77
77728;BMP280;68312;53.502;10.030;2023-11-19T06:25:28;99670.94;;;10.86
77728;BMP280;68312;53.502;10.030;2023-11-19T06:27:54;99675.16;;;10.90
77728;BMP280;68312;53.502;10.030;2023-11-19T06:30:19;99678.50;;;10.87
77728;BMP280;68312;53.502;10.030;2023-11-19T06:32:48;99665.69;;;11.01
77728;BMP280;68312;53.502;10.030;2023-11-19T06:35:13;99659.81;;;11.07
77728;BMP280;68312;53.502;10.030;2023-11-19T06:37:40;99666.69;;;11.12
77728;BMP280;68312;53.502;10.030;2023-11-19T06:40:07;99657.00;;;11.16
77728;BMP280;68312;53.502;10.030;2023-11-19T06:42:34;99650.34;;;11.22
77728;BMP280;68312;53.502;10.030;2023-11-19T06:45:00;99645.38;;;11.17
77728;BMP280;68312;53.502;10.030;2023-11-19T06:47:26;99654.09;;;11.21
77728;BMP280;68312;53.502;10.030;2023-11-19T06:49:53;99648.97;;;11.28
77728;BMP280;68312;53.502;10.030;2023-11-19T06:55:59;99668.94;;;11.29
77728;BMP280;68312;53.502;10.030;2023-11-19T06:58:25;99673.72;;;11.42
77728;BMP280;68312;53.502;10.030;2023-11-19T07:00:51;99713.25;;;11.45
77728;BMP280;68312;53.502;10.030;2023-11-19T07:03:16;99749.31;;;11.48
77728;BMP280;68312;53.502;10.030;2023-11-19T07:05:41;99787.19;;;11.44
77728;BMP280;68312;53.502;10.030;2023-11-19T07:08:07;99849.06;;;11.57
77728;BMP280;68312;53.502;10.030;2023-11-19T07:10:32;99889.03;;;11.62
77728;BMP280;68312;53.502;10.030;2023-11-19T07:12:58;99897.59;;;11.59
77728;BMP280;68312;53.502;10.030;2023-11-19T07:15:24;99916.06;;;11.62
77728;BMP280;68312;53.502;10.030;2023-11-19T07:17:49;99921.25;;;11.59
77728;BMP280;68312;53.502;10.030;2023-11-19T07:20:15;99940.09;;;11.61
77728;BMP280;68312;53.502;10.030;2023-11-19T07:22:43;99946.72;;;11.70
77728;BMP280;68312;53.502;10.030;2023-11-19T07:25:12;99959.34;;;11.65
77728;BMP280;68312;53.502;10.030;2023-11-19T07:27:38;99970.19;;;11.63
77728;BMP280;68312;53.502;10.030;2023-11-19T07:30:05;99968.59;;;11.59
77728;BMP280;68312;53.502;10.030;2023-11-19T07:32:32;99974.59;;;11.59
77728;BMP280;68312;53.502;10.030;2023-11-19T07:34:58;99968.16;;;11.57
77728;BMP280;68312;53.502;10.030;2023-11-19T07:37:25;99961.81;;;11.58
77728;BMP280;68312;53.502;10.030;2023-11-19T07:39:51;99962.47;;;11.55
77728;BMP280;68312;53.502;10.030;2023-11-19T07:42:16;99967.25;;;11.65
77728;BMP280;68312;53.502;10.030;2023-11-19T07:44:43;99972.06;;;11.63
77728;BMP280;68312;53.502;10.030;2023-11-19T07:47:09;99969.53;;;11.66
77728;BMP280;68312;53.502;10.030;2023-11-19T07:49:35;99979.97;;;11.78
77728;BMP280;68312;53.502;10.030;2023-11-19T07:52:00;99991.50;;;11.89
77728;BMP280;68312;53.502;10.030;2023-11-19T07:54:27;100001.97;;;12.01
77728;BMP280;68312;53.502;10.030;2023-11-19T07:56:52;100016.38;;;12.07
77728;BMP280;68312;53.502;10.030;2023-11-19T07:59:17;100041.59;;;12.08
77728;BMP280;68312;53.502;10.030;2023-11-19T08:01:43;100034.69;;;12.03
77728;BMP280;68312;53.502;10.030;2023-11-19T08:04:08;100052.28;;;11.99
77728;BMP280;68312;53.502;10.030;2023-11-19T08:06:34;100054.41;;;11.94
77728;BMP280;68312;53.502;10.030;2023-11-19T08:08:59;100054.66;;;11.89
77728;BMP280;68312;53.502;10.030;2023-11-19T08:11:24;100052.38;;;11.88
77728;BMP280;68312;53.502;10.030;2023-11-19T08:13:50;100042.94;;;11.87
77728;BMP280;68312;53.502;10.030;2023-11-19T08:16:15;100048.56;;;11.85
77728;BMP280;68312;53.502;10.030;2023-11-19T08:18:42;100046.91;;;11.81
77728;BMP280;68312;53.502;10.030;2023-11-19T08:21:08;100043.84;;;11.79
77728;BMP280;68312;53.502;10.030;2023-11-19T08:23:34;100037.84;;;11.78
77728;BMP280;68312;53.502;10.030;2023-11-19T08:25:59;100044.28;;;11.81
77728;BMP280;68312;53.502;10.030;2023-11-19T08:28:25;100040.16;;;11.80
77728;BMP280;68312;53.502;10.030;2023-11-19T08:30:50;100046.16;;;11.80
77728;BMP280;68312;53.502;10.030;2023-11-19T08:33:16;100046.91;;;11.81
77728;BMP280;68312;53.502;10.030;2023-11-19T08:35:42;100046.91;;;11.81
77728;BMP280;68312;53.502;10.030;2023-11-19T08:38:08;100063.31;;;11.89
77728;BMP280;68312;53.502;10.030;2023-11-19T08:40:33;100074.00;;;11.96
77728;BMP280;68312;53.502;10.030;2023-11-19T08:42:58;100087.59;;;11.98
77728;BMP280;68312;53.502;10.030;2023-11-19T08:45:25;100091.31;;;11.97
77728;BMP280;68312;53.502;10.030;2023-11-19T08:47:51;100094.16;;;12.04
77728;BMP280;68312;53.502;10.030;2023-11-19T08:50:17;100104.09;;;12.11
77728;BMP280;68312;53.502;10.030;2023-11-19T08:52:42;100118.13;;;12.15
77728;BMP280;68312;53.502;10.030;2023-11-19T08:55:07;100127.78;;;12.26
77728;BMP280;68312;53.502;10.030;2023-11-19T08:57:35;100151.91;;;12.28
77728;BMP280;68312;53.502;10.030;2023-11-19T09:00:01;100154.28;;;12.33
77728;BMP280;68312;53.502;10.030;2023-11-19T09:02:28;100155.84;;;12.34
77728;BMP280;68312;53.502;10.030;2023-11-19T09:04:56;100147.31;;;12.25
77728;BMP280;68312;53.502;10.030;2023-11-19T09:07:21;100169.81;;;12.22
77728;BMP280;68312;53.502;10.030;2023-11-19T09:09:47;100125.44;;;12.21
77728;BMP280;68312;53.502;10.030;2023-11-19T09:12:12;100167.94;;;12.23
77728;BMP280;68312;53.502;10.030;2023-11-19T09:14:38;100176.53;;;12.20
77728;BMP280;68312;53.502;10.030;2023-11-19T09:17:04;100167.28;;;12.26
77728;BMP280;68312;53.502;10.030;2023-11-19T09:19:32;100185.72;;;12.26
77728;BMP280;68312;53.502;10.030;2023-11-19T09:21:58;100206.88;;;12.29
77728;BMP280;68312;53.502;10.030;2023-11-19T09:24:23;100212.22;;;12.33
77728;BMP280;68312;53.502;10.030;2023-11-19T09:26:49;100216.19;;;12.27
77728;BMP280;68312;53.502;10.030;2023-11-19T09:29:14;100210.59;;;12.28
77728;BMP280;68312;53.502;10.030;2023-11-19T09:31:40;100229.44;;;12.30
77728;BMP280;68312;53.502;10.030;2023-11-19T09:34:05;100224.94;;;12.31
77728;BMP280;68312;53.502;10.030;2023-11-19T09:36:30;100236.03;;;12.36
77728;BMP280;68312;53.502;10.030;2023-11-19T09:38:56;100241.34;;;12.40
77728;BMP280;68312;53.502;10.030;2023-11-19T09:41:23;100248.16;;;12.41
77728;BMP280;68312;53.502;10.030;2023-11-19T09:43:49;100248.06;;;12.37
77728;BMP280;68312;53.502;10.030;2023-11-19T09:46:15;100237.72;;;12.44
77728;BMP280;68312;53.502;10.030;2023-11-19T09:48:42;100250.09;;;12.44
77728;BMP280;68312;53.502;10.030;2023-11-19T09:51:11;100254.53;;;12.40
77728;BMP280;68312;53.502;10.030;2023-11-19T09:53:37;100256.66;;;12.34
77728;BMP280;68312;53.502;10.030;2023-11-19T09:56:06;100255.00;;;12.30
77728;BMP280;68312;53.502;10.030;2023-11-19T09:58:35;100249.75;;;12.30
77728;BMP280;68312;53.502;10.030;2023-11-19T10:01:01;100250.53;;;12.45
77728;BMP280;68312;53.502;10.030;2023-11-19T10:03:34;100254.09;;;12.38
77728;BMP280;68312;53.502;10.030;2023-11-19T10:06:10;100258.75;;;12.29
77728;BMP280;68312;53.502;10.030;2023-11-19T10:08:39;100239.97;;;12.30
77728;BMP280;68312;53.502;10.030;2023-11-19T10:11:08;100243.38;;;12.31
77728;BMP280;68312;53.502;10.030;2023-11-19T10:13:37;100233.72;;;12.35
77728;BMP280;68312;53.502;10.030;2023-11-19T10:16:08;100250.81;;;12.41
77728;BMP280;68312;53.502;10.030;2023-11-19T10:18:42;100242.19;;;12.44
77728;BMP280;68312;53.502;10.030;2023-11-19T10:21:12;100265.06;;;12.40
77728;BMP280;68312;53.502;10.030;2023-11-19T10:27:25;100251.38;;;12.34
77728;BMP280;68312;53.502;10.030;2023-11-19T10:29:51;100240.56;;;12.24
77728;BMP280;68312;53.502;10.030;2023-11-19T10:32:16;100234.31;;;12.16
77728;BMP280;68312;53.502;10.030;2023-11-19T10:34:41;100246.53;;;12.21
77728;BMP280;68312;53.502;10.030;2023-11-19T10:37:08;100237.97;;;12.12
77728;BMP280;68312;53.502;10.030;2023-11-19T10:39:53;100246.75;;;12.16
77728;BMP280;68312;53.502;10.030;2023-11-19T10:42:22;100246.19;;;12.22
77728;BMP280;68312;53.502;10.030;2023-11-19T10:44:47;100249.56;;;12.23
77728;BMP280;68312;53.502;10.030;2023-11-19T10:47:18;100250.41;;;12.27
77728;BMP280;68312;53.502;10.030;2023-11-19T10:49:45;100260.19;;;12.26
77728;BMP280;68312;53.502;10.030;2023-11-19T10:52:18;100250.41;;;12.27
77728;BMP280;68312;53.502;10.030;2023-11-19T10:54:49;100247.69;;;12.23
77728;BMP280;68312;53.502;10.030;2023-11-19T10:57:21;100247.16;;;12.18
77728;BMP280;68312;53.502;10.030;2023-11-19T10:59:52;100255.75;;;12.15
77728;BMP280;68312;53.502;10.030;2023-11-19T11:02:22;100252.44;;;12.18
77728;BMP280;68312;53.502;10.030;2023-11-19T11:04:51;100243.44;;;12.19
77728;BMP280;68312;53.502;10.030;2023-11-19T11:07:21;100236.72;;;12.06
77728;BMP280;68312;53.502;10.030;2023-11-19T11:09:51;100230.59;;;12.02
77728;BMP280;68312;53.502;10.030;2023-11-19T11:12:17;100219.19;;;11.98
77728;BMP280;68312;53.502;10.030;2023-11-19T11:14:48;100211.28;;;11.98
77728;BMP280;68312;53.502;10.030;2023-11-19T11:17:17;100200.31;;;11.96
77728;BMP280;68312;53.502;10.030;2023-11-19T11:19:43;100192.25;;;11.89
77728;BMP280;68312;53.502;10.030;2023-11-19T11:22:09;100186.56;;;11.88
77728;BMP280;68312;53.502;10.030;2023-11-19T11:39:41;100159.81;;;11.86
77728;BMP280;68312;53.502;10.030;2023-11-19T11:45:07;100185.59;;;12.07
77728;BMP280;68312;53.502;10.030;2023-11-19T11:50:13;100208.97;;;12.24
77728;BMP280;68312;53.502;10.030;2023-11-19T11:55:34;100233.16;;;12.87
77728;BMP280;68312;53.502;10.030;2023-11-19T11:58:00;100247.09;;;12.87
77728;BMP280;68312;53.502;10.030;2023-11-19T12:00:33;100255.75;;;12.88
77728;BMP280;68312;53.502;10.030;2023-11-19T12:03:04;100257.97;;;12.86
77728;BMP280;68312;53.502;10.030;2023-11-19T12:05:32;100251.09;;;12.66
77728;BMP280;68312;53.502;10.030;2023-11-19T12:08:03;100277.41;;;12.51
77728;BMP280;68312;53.502;10.030;2023-11-19T12:10:36;100265.50;;;12.42
77728;BMP280;68312;53.502;10.030;2023-11-19T12:13:08;100248.44;;;12.36
77728;BMP280;68312;53.502;10.030;2023-11-19T12:18:29;100244.91;;;12.32
77728;BMP280;68312;53.502;10.030;2023-11-19T12:20:56;100244.13;;;12.31
77728;BMP280;68312;53.502;10.030;2023-11-19T12:23:26;100232.53;;;12.63
77728;BMP280;68312;53.502;10.030;2023-11-19T12:25:53;100247.16;;;12.60
77728;BMP280;68312;53.502;10.030;2023-11-19T12:35:24;100297.81;;;13.45
77728;BMP280;68312;53.502;10.030;2023-11-19T12:37:51;100311.63;;;13.57
77728;BMP280;68312;53.502;10.030;2023-11-19T12:40:19;100320.56;;;13.68
77728;BMP280;68312;53.502;10.030;2023-11-19T12:42:47;100304.38;;;13.36
77728;BMP280;68312;53.502;10.030;2023-11-19T12:45:14;100282.53;;;13.35
77728;BMP280;68312;53.502;10.030;2023-11-19T12:47:44;100278.63;;;13.14
77728;BMP280;68312;53.502;10.030;2023-11-19T12:50:13;100262.91;;;12.87
77728;BMP280;68312;53.502;10.030;2023-11-19T12:52:39;100248.63;;;12.73
77728;BMP280;68312;53.502;10.030;2023-11-19T12:55:06;100240.84;;;12.49
77728;BMP280;68312;53.502;10.030;2023-11-19T12:57:50;100252.00;;;12.58
77728;BMP280;68312;53.502;10.030;2023-11-19T13:00:19;100238.50;;;12.75
77728;BMP280;68312;53.502;10.030;2023-11-19T13:02:54;100271.81;;;13.29
77728;BMP280;68312;53.502;10.030;2023-11-19T13:08:03;100304.28;;;13.48
77728;BMP280;68312;53.502;10.030;2023-11-19T13:10:31;100300.66;;;13.37
77728;BMP280;68312;53.502;10.030;2023-11-19T13:13:16;100288.41;;;13.14
77728;BMP280;68312;53.502;10.030;2023-11-19T13:15:42;100283.81;;;12.96
77728;BMP280;68312;53.502;10.030;2023-11-19T13:18:11;100279.06;;;12.86
77728;BMP280;68312;53.502;10.030;2023-11-19T13:20:37;100280.69;;;12.75
77728;BMP280;68312;53.502;10.030;2023-11-19T13:26:16;100274.13;;;12.84
77728;BMP280;68312;53.502;10.030;2023-11-19T13:28:41;100279.41;;;13.00
77728;BMP280;68312;53.502;10.030;2023-11-19T13:31:07;100294.63;;;13.06
77728;BMP280;68312;53.502;10.030;2023-11-19T13:33:32;100286.53;;;13.14
77728;BMP280;68312;53.502;10.030;2023-11-19T13:35:59;100298.44;;;13.08
77728;BMP280;68312;53.502;10.030;2023-11-19T13:38:30;100297.31;;;12.94
77728;BMP280;68312;53.502;10.030;2023-11-19T13:40:55;100302.69;;;12.82
77728;BMP280;68312;53.502;10.030;2023-11-19T13:43:21;100293.84;;;12.75
77728;BMP280;68312;53.502;10.030;2023-11-19T13:45:46;100294.34;;;12.65
77728;BMP280;68312;53.502;10.030;2023-11-19T13:48:12;100279.31;;;12.66
77728;BMP280;68312;53.502;10.030;2023-11-19T13:50:37;100290.53;;;12.78
77728;BMP280;68312;53.502;10.030;2023-11-19T13:53:02;100291.56;;;12.89
77728;BMP280;68312;53.502;10.030;2023-11-19T13:55:29;100297.69;;;12.93
77728;BMP280;68312;53.502;10.030;2023-11-19T13:57:55;100300.81;;;12.83
77728;BMP280;68312;53.502;10.030;2023-11-19T14:00:21;100292.91;;;12.83
77728;BMP280;68312;53.502;10.030;2023-11-19T14:02:48;100282.88;;;12.73
77728;BMP280;68312;53.502;10.030;2023-11-19T14:05:15;100283.16;;;12.68
77728;BMP280;68312;53.502;10.030;2023-11-19T14:07:43;100273.00;;;12.55
77728;BMP280;68312;53.502;10.030;2023-11-19T14:10:09;100262.88;;;12.42
77728;BMP280;68312;53.502;10.030;2023-11-19T14:12:36;100260.38;;;12.33
77728;BMP280;68312;53.502;10.030;2023-11-19T14:15:05;100264.44;;;12.31
77728;BMP280;68312;53.502;10.030;2023-11-19T14:17:32;100255.00;;;12.30
77728;BMP280;68312;53.502;10.030;2023-11-19T14:19:58;100256.34;;;12.24
77728;BMP280;68312;53.502;10.030;2023-11-19T14:22:24;100256.63;;;12.19
77728;BMP280;68312;53.502;10.030;2023-11-19T14:24:50;100225.84;;;12.08
77728;BMP280;68312;53.502;10.030;2023-11-19T14:27:15;100211.97;;;11.95
77728;BMP280;68312;53.502;10.030;2023-11-19T14:29:42;100204.09;;;11.84
77728;BMP280;68312;53.502;10.030;2023-11-19T14:32:08;100191.16;;;11.79
77728;BMP280;68312;53.502;10.030;2023-11-19T14:34:33;100176.75;;;11.73
77728;BMP280;68312;53.502;10.030;2023-11-19T14:36:59;100174.00;;;11.69
77728;BMP280;68312;53.502;10.030;2023-11-19T14:39:25;100169.50;;;11.70
77728;BMP280;68312;53.502;10.030;2023-11-19T14:41:51;100157.91;;;11.71
77728;BMP280;68312;53.502;10.030;2023-11-19T14:44:18;100169.31;;;11.75
77728;BMP280;68312;53.502;10.030;2023-11-19T14:46:45;100170.78;;;11.76